sensor_id;sensor_type;location;lat;lon;timestamp;P1;durP1;ratioP1;P2;durP2;ratioP2
39188;SDS011;24915;50.858;4.376;2023-04-06T00:00:50;24.95;;;13.80;;
39188;SDS011;24915;50.858;4.376;2023-04-06T00:03:16;25.45;;;13.27;;
39188;SDS011;24915;50.858;4.376;2023-04-06T00:05:41;22.85;;;12.82;;
39188;SDS011;24915;50.858;4.376;2023-04-06T00:08:07;21.50;;;13.15;;
39188;SDS011;24915;50.858;4.376;2023-04-06T00:10:33;23.00;;;14.00;;
39188;SDS011;24915;50.858;4.376;2023-04-06T00:12:59;25.52;;;13.50;;
39188;SDS011;24915;50.858;4.376;2023-04-06T00:15:25;25.10;;;13.02;;
39188;SDS011;24915;50.858;4.376;2023-04-06T00:17:51;20.58;;;13.07;;
39188;SDS011;24915;50.858;4.376;2023-04-06T00:20:17;23.30;;;13.15;;
39188;SDS011;24915;50.858;4.376;2023-04-06T00:22:43;27.27;;;15.20;;
39188;SDS011;24915;50.858;4.376;2023-04-06T00:25:09;30.02;;;14.30;;
39188;SDS011;24915;50.858;4.376;2023-04-06T00:27:36;23.40;;;13.27;;
39188;SDS011;24915;50.858;4.376;2023-04-06T00:30:03;24.85;;;13.63;;
39188;SDS011;24915;50.858;4.376;2023-04-06T00:32:30;25.65;;;15.27;;
39188;SDS011;24915;50.858;4.376;2023-04-06T00:34:56;21.73;;;12.52;;
39188;SDS011;24915;50.858;4.376;2023-04-06T00:37:22;24.48;;;14.50;;
39188;SDS011;24915;50.858;4.376;2023-04-06T00:39:48;20.55;;;13.50;;
39188;SDS011;24915;50.858;4.376;2023-04-06T00:42:14;27.27;;;14.13;;
39188;SDS011;24915;50.858;4.376;2023-04-06T00:44:40;24.13;;;14.10;;
39188;SDS011;24915;50.858;4.376;2023-04-06T00:47:07;30.17;;;15.88;;
39188;SDS011;24915;50.858;4.376;2023-04-06T00:49:32;24.40;;;16.25;;
39188;SDS011;24915;50.858;4.376;2023-04-06T00:51:59;25.63;;;13.18;;
39188;SDS011;24915;50.858;4.376;2023-04-06T00:54:25;22.73;;;13.02;;
39188;SDS011;24915;50.858;4.376;2023-04-06T00:56:50;20.90;;;13.05;;
39188;SDS011;24915;50.858;4.376;2023-04-06T00:59:16;21.33;;;12.65;;
39188;SDS011;24915;50.858;4.376;2023-04-06T01:01:42;21.63;;;12.93;;
39188;SDS011;24915;50.858;4.376;2023-04-06T01:04:08;27.92;;;13.15;;
39188;SDS011;24915;50.858;4.376;2023-04-06T01:06:33;25.70;;;13.90;;
39188;SDS011;24915;50.858;4.376;2023-04-06T01:08:59;22.98;;;13.18;;
39188;SDS011;24915;50.858;4.376;2023-04-06T01:11:25;25.13;;;15.05;;
39188;SDS011;24915;50.858;4.376;2023-04-06T01:13:51;27.15;;;17.23;;
39188;SDS011;24915;50.858;4.376;2023-04-06T01:16:17;27.02;;;14.30;;
39188;SDS011;24915;50.858;4.376;2023-04-06T01:18:43;28.83;;;15.65;;
39188;SDS011;24915;50.858;4.376;2023-04-06T01:21:09;30.02;;;15.23;;
39188;SDS011;24915;50.858;4.376;2023-04-06T01:23:41;25.42;;;15.18;;
39188;SDS011;24915;50.858;4.376;2023-04-06T01:26:09;26.88;;;15.07;;
39188;SDS011;24915;50.858;4.376;2023-04-06T01:28:34;28.00;;;14.82;;
39188;SDS011;24915;50.858;4.376;2023-04-06T01:31:02;29.13;;;15.18;;
39188;SDS011;24915;50.858;4.376;2023-04-06T01:33:28;27.77;;;16.02;;
39188;SDS011;24915;50.858;4.376;2023-04-06T01:35:54;27.48;;;15.18;;
39188;SDS011;24915;50.858;4.376;2023-04-06T01:38:19;30.52;;;16.00;;
39188;SDS011;24915;50.858;4.376;2023-04-06T01:40:45;24.73;;;15.18;;
39188;SDS011;24915;50.858;4.376;2023-04-06T01:43:11;26.60;;;15.30;;
39188;SDS011;24915;50.858;4.376;2023-04-06T01:45:37;25.88;;;15.07;;
39188;SDS011;24915;50.858;4.376;2023-04-06T01:48:02;27.02;;;15.05;;
39188;SDS011;24915;50.858;4.376;2023-04-06T01:50:29;27.20;;;15.43;;
39188;SDS011;24915;50.858;4.376;2023-04-06T01:52:55;29.00;;;16.10;;
39188;SDS011;24915;50.858;4.376;2023-04-06T01:55:21;27.30;;;15.20;;
39188;SDS011;24915;50.858;4.376;2023-04-06T01:57:46;28.48;;;16.02;;
39188;SDS011;24915;50.858;4.376;2023-04-06T02:00:12;30.55;;;15.07;;
39188;SDS011;24915;50.858;4.376;2023-04-06T02:02:39;28.30;;;15.48;;
39188;SDS011;24915;50.858;4.376;2023-04-06T02:05:05;26.25;;;15.00;;
39188;SDS011;24915;50.858;4.376;2023-04-06T02:07:31;30.65;;;16.00;;
39188;SDS011;24915;50.858;4.376;2023-04-06T02:09:56;29.90;;;15.57;;
39188;SDS011;24915;50.858;4.376;2023-04-06T02:12:22;27.88;;;14.98;;
39188;SDS011;24915;50.858;4.376;2023-04-06T02:14:48;28.13;;;15.00;;
39188;SDS011;24915;50.858;4.376;2023-04-06T02:17:14;25.15;;;15.32;;
39188;SDS011;24915;50.858;4.376;2023-04-06T02:19:40;23.63;;;14.20;;
39188;SDS011;24915;50.858;4.376;2023-04-06T02:22:06;31.73;;;14.23;;
39188;SDS011;24915;50.858;4.376;2023-04-06T02:24:31;25.58;;;15.45;;
39188;SDS011;24915;50.858;4.376;2023-04-06T02:26:57;26.75;;;15.60;;
39188;SDS011;24915;50.858;4.376;2023-04-06T02:29:23;29.33;;;15.15;;
39188;SDS011;24915;50.858;4.376;2023-04-06T02:31:48;28.88;;;15.35;;
39188;SDS011;24915;50.858;4.376;2023-04-06T02:34:14;24.67;;;14.40;;
39188;SDS011;24915;50.858;4.376;2023-04-06T02:36:46;26.75;;;14.95;;
39188;SDS011;24915;50.858;4.376;2023-04-06T02:39:12;31.58;;;16.02;;
39188;SDS011;24915;50.858;4.376;2023-04-06T02:41:38;24.60;;;14.98;;
39188;SDS011;24915;50.858;4.376;2023-04-06T02:44:05;25.48;;;15.70;;
39188;SDS011;24915;50.858;4.376;2023-04-06T02:46:32;26.98;;;15.82;;
39188;SDS011;24915;50.858;4.376;2023-04-06T02:48:58;28.23;;;16.58;;
39188;SDS011;24915;50.858;4.376;2023-04-06T02:51:25;30.58;;;16.52;;
39188;SDS011;24915;50.858;4.376;2023-04-06T02:53:51;30.17;;;16.85;;
39188;SDS011;24915;50.858;4.376;2023-04-06T02:56:17;33.15;;;16.23;;
39188;SDS011;24915;50.858;4.376;2023-04-06T02:58:43;28.60;;;16.75;;
39188;SDS011;24915;50.858;4.376;2023-04-06T03:01:09;26.58;;;17.10;;
39188;SDS011;24915;50.858;4.376;2023-04-06T03:03:34;27.30;;;16.75;;
39188;SDS011;24915;50.858;4.376;2023-04-06T03:06:00;31.35;;;16.05;;
39188;SDS011;24915;50.858;4.376;2023-04-06T03:08:26;27.38;;;16.08;;
39188;SDS011;24915;50.858;4.376;2023-04-06T03:10:51;27.02;;;15.90;;
39188;SDS011;24915;50.858;4.376;2023-04-06T03:13:17;31.13;;;16.65;;
39188;SDS011;24915;50.858;4.376;2023-04-06T03:15:42;27.50;;;16.10;;
39188;SDS011;24915;50.858;4.376;2023-04-06T03:18:08;28.08;;;16.73;;
39188;SDS011;24915;50.858;4.376;2023-04-06T03:20:34;29.10;;;16.40;;
39188;SDS011;24915;50.858;4.376;2023-04-06T03:22:59;27.15;;;15.63;;
39188;SDS011;24915;50.858;4.376;2023-04-06T03:25:25;31.08;;;16.17;;
39188;SDS011;24915;50.858;4.376;2023-04-06T03:27:51;28.52;;;16.05;;
39188;SDS011;24915;50.858;4.376;2023-04-06T03:30:16;33.72;;;17.33;;
39188;SDS011;24915;50.858;4.376;2023-04-06T03:32:45;24.80;;;16.00;;
39188;SDS011;24915;50.858;4.376;2023-04-06T03:35:11;26.70;;;16.20;;
39188;SDS011;24915;50.858;4.376;2023-04-06T03:37:37;30.33;;;16.40;;
39188;SDS011;24915;50.858;4.376;2023-04-06T03:40:03;31.30;;;16.83;;
39188;SDS011;24915;50.858;4.376;2023-04-06T03:42:29;33.20;;;16.88;;
39188;SDS011;24915;50.858;4.376;2023-04-06T03:44:55;35.10;;;17.67;;
39188;SDS011;24915;50.858;4.376;2023-04-06T03:47:22;31.83;;;17.40;;
39188;SDS011;24915;50.858;4.376;2023-04-06T03:49:48;32.47;;;16.52;;
39188;SDS011;24915;50.858;4.376;2023-04-06T03:52:13;29.20;;;15.60;;
39188;SDS011;24915;50.858;4.376;2023-04-06T03:54:39;29.88;;;15.93;;
39188;SDS011;24915;50.858;4.376;2023-04-06T03:57:05;30.55;;;16.25;;
39188;SDS011;24915;50.858;4.376;2023-04-06T03:59:31;27.73;;;16.73;;
39188;SDS011;24915;50.858;4.376;2023-04-06T04:01:56;29.13;;;16.45;;
39188;SDS011;24915;50.858;4.376;2023-04-06T04:04:22;27.08;;;16.02;;
39188;SDS011;24915;50.858;4.376;2023-04-06T04:06:47;29.85;;;16.33;;
39188;SDS011;24915;50.858;4.376;2023-04-06T04:09:13;24.55;;;16.25;;
39188;SDS011;24915;50.858;4.376;2023-04-06T04:11:39;26.80;;;15.73;;
39188;SDS011;24915;50.858;4.376;2023-04-06T04:14:04;29.55;;;15.95;;
39188;SDS011;24915;50.858;4.376;2023-04-06T04:16:30;31.02;;;16.58;;
39188;SDS011;24915;50.858;4.376;2023-04-06T04:18:56;27.58;;;15.65;;
39188;SDS011;24915;50.858;4.376;2023-04-06T04:21:23;30.17;;;15.90;;
39188;SDS011;24915;50.858;4.376;2023-04-06T04:23:48;29.10;;;16.58;;
39188;SDS011;24915;50.858;4.376;2023-04-06T04:26:15;32.78;;;16.83;;
39188;SDS011;24915;50.858;4.376;2023-04-06T04:28:41;24.40;;;15.65;;
39188;SDS011;24915;50.858;4.376;2023-04-06T04:31:07;29.00;;;17.35;;
39188;SDS011;24915;50.858;4.376;2023-04-06T04:33:32;28.00;;;16.35;;
39188;SDS011;24915;50.858;4.376;2023-04-06T04:35:58;33.83;;;16.40;;
39188;SDS011;24915;50.858;4.376;2023-04-06T04:38:23;31.90;;;17.75;;
39188;SDS011;24915;50.858;4.376;2023-04-06T04:40:49;30.10;;;16.83;;
39188;SDS011;24915;50.858;4.376;2023-04-06T04:43:15;29.08;;;16.73;;
39188;SDS011;24915;50.858;4.376;2023-04-06T04:45:40;28.20;;;17.50;;
39188;SDS011;24915;50.858;4.376;2023-04-06T04:48:06;28.02;;;17.67;;
39188;SDS011;24915;50.858;4.376;2023-04-06T04:50:33;32.03;;;17.45;;
39188;SDS011;24915;50.858;4.376;2023-04-06T04:52:58;27.48;;;15.55;;
39188;SDS011;24915;50.858;4.376;2023-04-06T04:55:25;38.05;;;17.55;;
39188;SDS011;24915;50.858;4.376;2023-04-06T04:57:51;34.72;;;17.42;;
39188;SDS011;24915;50.858;4.376;2023-04-06T05:00:16;33.45;;;17.98;;
39188;SDS011;24915;50.858;4.376;2023-04-06T05:02:42;39.50;;;17.27;;
39188;SDS011;24915;50.858;4.376;2023-04-06T05:05:08;30.35;;;18.45;;
39188;SDS011;24915;50.858;4.376;2023-04-06T05:07:34;32.03;;;17.60;;
39188;SDS011;24915;50.858;4.376;2023-04-06T05:09:59;31.05;;;16.98;;
39188;SDS011;24915;50.858;4.376;2023-04-06T05:12:25;36.20;;;18.50;;
39188;SDS011;24915;50.858;4.376;2023-04-06T05:14:52;37.20;;;18.60;;
39188;SDS011;24915;50.858;4.376;2023-04-06T05:17:19;33.33;;;18.05;;
39188;SDS011;24915;50.858;4.376;2023-04-06T05:19:44;33.65;;;17.98;;
39188;SDS011;24915;50.858;4.376;2023-04-06T05:22:10;36.13;;;17.95;;
39188;SDS011;24915;50.858;4.376;2023-04-06T05:24:36;36.92;;;19.13;;
39188;SDS011;24915;50.858;4.376;2023-04-06T05:27:02;30.55;;;17.65;;
39188;SDS011;24915;50.858;4.376;2023-04-06T05:29:27;31.75;;;17.63;;
39188;SDS011;24915;50.858;4.376;2023-04-06T05:31:54;33.42;;;18.38;;
39188;SDS011;24915;50.858;4.376;2023-04-06T05:34:20;33.45;;;17.23;;
39188;SDS011;24915;50.858;4.376;2023-04-06T05:36:45;34.28;;;18.17;;
39188;SDS011;24915;50.858;4.376;2023-04-06T05:39:11;33.33;;;18.42;;
39188;SDS011;24915;50.858;4.376;2023-04-06T05:41:37;40.60;;;17.88;;
39188;SDS011;24915;50.858;4.376;2023-04-06T05:44:03;37.38;;;18.73;;
39188;SDS011;24915;50.858;4.376;2023-04-06T05:46:29;35.33;;;18.30;;
39188;SDS011;24915;50.858;4.376;2023-04-06T05:48:54;33.28;;;18.48;;
39188;SDS011;24915;50.858;4.376;2023-04-06T05:51:21;31.42;;;18.10;;
39188;SDS011;24915;50.858;4.376;2023-04-06T05:53:46;37.63;;;18.27;;
39188;SDS011;24915;50.858;4.376;2023-04-06T05:56:12;33.60;;;18.92;;
39188;SDS011;24915;50.858;4.376;2023-04-06T05:58:38;40.83;;;18.58;;
39188;SDS011;24915;50.858;4.376;2023-04-06T06:01:03;36.70;;;19.60;;
39188;SDS011;24915;50.858;4.376;2023-04-06T06:03:30;35.45;;;19.00;;
39188;SDS011;24915;50.858;4.376;2023-04-06T06:05:59;42.65;;;19.08;;
39188;SDS011;24915;50.858;4.376;2023-04-06T06:08:27;38.40;;;18.65;;
39188;SDS011;24915;50.858;4.376;2023-04-06T06:10:52;36.08;;;19.90;;
39188;SDS011;24915;50.858;4.376;2023-04-06T06:13:18;37.47;;;19.33;;
39188;SDS011;24915;50.858;4.376;2023-04-06T06:15:44;38.92;;;19.55;;
39188;SDS011;24915;50.858;4.376;2023-04-06T06:18:10;41.15;;;19.17;;
39188;SDS011;24915;50.858;4.376;2023-04-06T06:20:36;35.60;;;18.27;;
39188;SDS011;24915;50.858;4.376;2023-04-06T06:23:01;49.00;;;19.02;;
39188;SDS011;24915;50.858;4.376;2023-04-06T06:25:28;40.40;;;20.38;;
39188;SDS011;24915;50.858;4.376;2023-04-06T06:27:55;37.38;;;18.13;;
39188;SDS011;24915;50.858;4.376;2023-04-06T06:30:22;40.80;;;18.95;;
39188;SDS011;24915;50.858;4.376;2023-04-06T06:32:48;36.55;;;17.95;;
39188;SDS011;24915;50.858;4.376;2023-04-06T06:35:14;37.80;;;19.17;;
39188;SDS011;24915;50.858;4.376;2023-04-06T06:37:40;38.42;;;20.45;;
39188;SDS011;24915;50.858;4.376;2023-04-06T06:40:06;40.00;;;18.98;;
39188;SDS011;24915;50.858;4.376;2023-04-06T06:42:32;36.17;;;19.73;;
39188;SDS011;24915;50.858;4.376;2023-04-06T06:44:58;41.53;;;19.00;;
39188;SDS011;24915;50.858;4.376;2023-04-06T06:47:23;35.20;;;19.05;;
39188;SDS011;24915;50.858;4.376;2023-04-06T06:49:50;34.08;;;19.30;;
39188;SDS011;24915;50.858;4.376;2023-04-06T06:52:16;41.40;;;19.13;;
39188;SDS011;24915;50.858;4.376;2023-04-06T06:54:41;47.75;;;22.92;;
39188;SDS011;24915;50.858;4.376;2023-04-06T06:57:07;35.78;;;21.65;;
39188;SDS011;24915;50.858;4.376;2023-04-06T06:59:33;43.58;;;25.63;;
39188;SDS011;24915;50.858;4.376;2023-04-06T07:01:58;49.35;;;28.35;;
39188;SDS011;24915;50.858;4.376;2023-04-06T07:04:24;41.72;;;22.38;;
39188;SDS011;24915;50.858;4.376;2023-04-06T07:06:49;43.80;;;24.38;;
39188;SDS011;24915;50.858;4.376;2023-04-06T07:09:16;35.20;;;22.17;;
39188;SDS011;24915;50.858;4.376;2023-04-06T07:11:41;58.45;;;31.92;;
39188;SDS011;24915;50.858;4.376;2023-04-06T07:14:07;39.97;;;20.98;;
39188;SDS011;24915;50.858;4.376;2023-04-06T07:16:33;42.75;;;22.38;;
39188;SDS011;24915;50.858;4.376;2023-04-06T07:18:58;34.72;;;17.77;;
39188;SDS011;24915;50.858;4.376;2023-04-06T07:21:24;38.42;;;22.77;;
39188;SDS011;24915;50.858;4.376;2023-04-06T07:23:50;32.25;;;16.75;;
39188;SDS011;24915;50.858;4.376;2023-04-06T07:26:16;31.33;;;16.70;;
39188;SDS011;24915;50.858;4.376;2023-04-06T07:28:41;27.63;;;15.13;;
39188;SDS011;24915;50.858;4.376;2023-04-06T07:31:07;35.53;;;22.73;;
39188;SDS011;24915;50.858;4.376;2023-04-06T07:33:33;41.05;;;20.95;;
39188;SDS011;24915;50.858;4.376;2023-04-06T07:35:58;40.58;;;25.13;;
39188;SDS011;24915;50.858;4.376;2023-04-06T07:38:24;47.22;;;28.40;;
39188;SDS011;24915;50.858;4.376;2023-04-06T07:40:50;31.05;;;17.98;;
39188;SDS011;24915;50.858;4.376;2023-04-06T07:43:16;38.45;;;20.38;;
39188;SDS011;24915;50.858;4.376;2023-04-06T07:45:41;27.27;;;15.77;;
39188;SDS011;24915;50.858;4.376;2023-04-06T07:48:07;31.23;;;17.48;;
39188;SDS011;24915;50.858;4.376;2023-04-06T07:50:32;61.75;;;39.88;;
39188;SDS011;24915;50.858;4.376;2023-04-06T07:52:58;22.17;;;15.18;;
39188;SDS011;24915;50.858;4.376;2023-04-06T07:55:25;29.50;;;18.35;;
39188;SDS011;24915;50.858;4.376;2023-04-06T07:57:51;29.88;;;16.10;;
39188;SDS011;24915;50.858;4.376;2023-04-06T08:00:16;23.42;;;13.63;;
39188;SDS011;24915;50.858;4.376;2023-04-06T08:02:42;35.90;;;15.00;;
39188;SDS011;24915;50.858;4.376;2023-04-06T08:05:08;24.38;;;14.90;;
39188;SDS011;24915;50.858;4.376;2023-04-06T08:07:34;19.80;;;11.57;;
39188;SDS011;24915;50.858;4.376;2023-04-06T08:10:00;25.73;;;13.55;;
39188;SDS011;24915;50.858;4.376;2023-04-06T08:12:26;17.90;;;11.07;;
39188;SDS011;24915;50.858;4.376;2023-04-06T08:14:52;22.73;;;12.45;;
39188;SDS011;24915;50.858;4.376;2023-04-06T08:17:18;19.27;;;11.43;;
39188;SDS011;24915;50.858;4.376;2023-04-06T08:19:43;19.55;;;11.10;;
39188;SDS011;24915;50.858;4.376;2023-04-06T08:22:10;19.33;;;10.73;;
39188;SDS011;24915;50.858;4.376;2023-04-06T08:24:36;20.00;;;11.82;;
39188;SDS011;24915;50.858;4.376;2023-04-06T08:27:01;23.17;;;11.52;;
39188;SDS011;24915;50.858;4.376;2023-04-06T08:29:28;21.55;;;12.10;;
39188;SDS011;24915;50.858;4.376;2023-04-06T08:31:53;20.27;;;11.77;;
39188;SDS011;24915;50.858;4.376;2023-04-06T08:34:20;19.52;;;11.85;;
39188;SDS011;24915;50.858;4.376;2023-04-06T08:36:46;28.38;;;12.60;;
39188;SDS011;24915;50.858;4.376;2023-04-06T08:39:12;21.20;;;11.73;;
39188;SDS011;24915;50.858;4.376;2023-04-06T08:41:38;22.73;;;12.85;;
39188;SDS011;24915;50.858;4.376;2023-04-06T08:44:06;23.77;;;13.55;;
39188;SDS011;24915;50.858;4.376;2023-04-06T08:46:32;23.98;;;15.35;;
39188;SDS011;24915;50.858;4.376;2023-04-06T08:48:58;22.45;;;13.05;;
39188;SDS011;24915;50.858;4.376;2023-04-06T08:51:25;26.98;;;15.50;;
39188;SDS011;24915;50.858;4.376;2023-04-06T08:53:55;19.20;;;12.30;;
39188;SDS011;24915;50.858;4.376;2023-04-06T08:56:22;29.40;;;18.50;;
39188;SDS011;24915;50.858;4.376;2023-04-06T08:58:48;32.65;;;15.02;;
39188;SDS011;24915;50.858;4.376;2023-04-06T09:01:15;25.05;;;14.75;;
39188;SDS011;24915;50.858;4.376;2023-04-06T09:03:45;30.35;;;15.75;;
39188;SDS011;24915;50.858;4.376;2023-04-06T09:06:13;26.63;;;15.23;;
39188;SDS011;24915;50.858;4.376;2023-04-06T09:08:40;23.40;;;14.13;;
39188;SDS011;24915;50.858;4.376;2023-04-06T09:11:06;60.72;;;29.52;;
39188;SDS011;24915;50.858;4.376;2023-04-06T09:13:46;42.53;;;20.77;;
39188;SDS011;24915;50.858;4.376;2023-04-06T09:16:12;38.30;;;19.15;;
39188;SDS011;24915;50.858;4.376;2023-04-06T09:18:38;64.40;;;30.60;;
39188;SDS011;24915;50.858;4.376;2023-04-06T09:21:06;24.63;;;14.55;;
39188;SDS011;24915;50.858;4.376;2023-04-06T09:23:32;35.03;;;20.70;;
39188;SDS011;24915;50.858;4.376;2023-04-06T09:26:17;36.13;;;22.60;;
39188;SDS011;24915;50.858;4.376;2023-04-06T09:31:13;36.97;;;26.55;;
39188;SDS011;24915;50.858;4.376;2023-04-06T09:33:41;22.27;;;13.00;;
39188;SDS011;24915;50.858;4.376;2023-04-06T09:36:08;27.05;;;15.55;;
39188;SDS011;24915;50.858;4.376;2023-04-06T09:38:51;27.85;;;16.38;;
39188;SDS011;24915;50.858;4.376;2023-04-06T09:41:25;24.13;;;13.52;;
39188;SDS011;24915;50.858;4.376;2023-04-06T09:43:52;26.15;;;17.02;;
39188;SDS011;24915;50.858;4.376;2023-04-06T09:46:33;23.13;;;13.38;;
39188;SDS011;24915;50.858;4.376;2023-04-06T09:49:04;26.15;;;14.23;;
39188;SDS011;24915;50.858;4.376;2023-04-06T09:51:30;17.15;;;11.93;;
39188;SDS011;24915;50.858;4.376;2023-04-06T09:54:00;18.90;;;12.07;;
39188;SDS011;24915;50.858;4.376;2023-04-06T09:56:30;19.95;;;12.85;;
39188;SDS011;24915;50.858;4.376;2023-04-06T09:59:04;17.63;;;11.88;;
39188;SDS011;24915;50.858;4.376;2023-04-06T10:01:39;17.52;;;11.77;;
39188;SDS011;24915;50.858;4.376;2023-04-06T10:04:09;19.92;;;11.77;;
39188;SDS011;24915;50.858;4.376;2023-04-06T10:06:45;19.45;;;12.00;;
39188;SDS011;24915;50.858;4.376;2023-04-06T10:09:17;18.20;;;12.57;;
39188;SDS011;24915;50.858;4.376;2023-04-06T10:11:43;19.88;;;11.98;;
39188;SDS011;24915;50.858;4.376;2023-04-06T10:14:10;18.42;;;11.70;;
39188;SDS011;24915;50.858;4.376;2023-04-06T10:16:36;21.88;;;12.38;;
39188;SDS011;24915;50.858;4.376;2023-04-06T10:19:06;30.67;;;16.67;;
39188;SDS011;24915;50.858;4.376;2023-04-06T10:21:38;68.80;;;30.45;;
39188;SDS011;24915;50.858;4.376;2023-04-06T10:24:09;78.78;;;33.88;;
39188;SDS011;24915;50.858;4.376;2023-04-06T10:26:35;58.75;;;25.73;;
39188;SDS011;24915;50.858;4.376;2023-04-06T10:29:04;45.15;;;20.25;;
39188;SDS011;24915;50.858;4.376;2023-04-06T10:31:30;47.55;;;28.70;;
39188;SDS011;24915;50.858;4.376;2023-04-06T10:33:57;24.75;;;17.38;;
39188;SDS011;24915;50.858;4.376;2023-04-06T10:36:27;24.05;;;14.77;;
39188;SDS011;24915;50.858;4.376;2023-04-06T10:38:58;22.40;;;13.48;;
39188;SDS011;24915;50.858;4.376;2023-04-06T10:41:31;26.38;;;15.68;;
39188;SDS011;24915;50.858;4.376;2023-04-06T10:44:08;23.40;;;13.85;;
39188;SDS011;24915;50.858;4.376;2023-04-06T10:46:53;21.35;;;14.45;;
39188;SDS011;24915;50.858;4.376;2023-04-06T10:49:25;19.58;;;13.48;;
39188;SDS011;24915;50.858;4.376;2023-04-06T10:51:52;18.92;;;12.65;;
39188;SDS011;24915;50.858;4.376;2023-04-06T10:54:20;22.15;;;13.27;;
39188;SDS011;24915;50.858;4.376;2023-04-06T10:56:47;23.48;;;12.93;;
39188;SDS011;24915;50.858;4.376;2023-04-06T10:59:13;18.90;;;13.75;;
39188;SDS011;24915;50.858;4.376;2023-04-06T11:01:44;19.73;;;14.18;;
39188;SDS011;24915;50.858;4.376;2023-04-06T11:04:15;16.55;;;11.35;;
39188;SDS011;24915;50.858;4.376;2023-04-06T11:06:48;20.55;;;14.00;;
39188;SDS011;24915;50.858;4.376;2023-04-06T11:09:27;22.35;;;13.10;;
39188;SDS011;24915;50.858;4.376;2023-04-06T11:11:54;19.17;;;12.80;;
39188;SDS011;24915;50.858;4.376;2023-04-06T11:14:21;21.77;;;13.52;;
39188;SDS011;24915;50.858;4.376;2023-04-06T11:16:47;21.77;;;13.77;;
39188;SDS011;24915;50.858;4.376;2023-04-06T11:19:15;17.67;;;12.65;;
39188;SDS011;24915;50.858;4.376;2023-04-06T11:21:41;21.05;;;13.40;;
39188;SDS011;24915;50.858;4.376;2023-04-06T11:26:47;19.00;;;13.73;;
39188;SDS011;24915;50.858;4.376;2023-04-06T11:29:16;21.25;;;14.65;;
39188;SDS011;24915;50.858;4.376;2023-04-06T11:31:50;24.08;;;13.93;;
39188;SDS011;24915;50.858;4.376;2023-04-06T11:34:18;20.17;;;13.18;;
39188;SDS011;24915;50.858;4.376;2023-04-06T11:36:45;23.42;;;13.25;;
39188;SDS011;24915;50.858;4.376;2023-04-06T11:39:13;23.08;;;14.88;;
39188;SDS011;24915;50.858;4.376;2023-04-06T11:41:47;19.02;;;14.02;;
39188;SDS011;24915;50.858;4.376;2023-04-06T11:44:33;22.98;;;14.10;;
39188;SDS011;24915;50.858;4.376;2023-04-06T11:47:00;32.90;;;18.95;;
39188;SDS011;24915;50.858;4.376;2023-04-06T11:49:34;37.22;;;20.60;;
39188;SDS011;24915;50.858;4.376;2023-04-06T11:52:03;30.65;;;19.02;;
39188;SDS011;24915;50.858;4.376;2023-04-06T11:54:43;46.20;;;24.55;;
39188;SDS011;24915;50.858;4.376;2023-04-06T11:57:10;35.03;;;19.50;;
39188;SDS011;24915;50.858;4.376;2023-04-06T11:59:36;41.85;;;24.92;;
39188;SDS011;24915;50.858;4.376;2023-04-06T12:02:02;48.13;;;23.75;;
39188;SDS011;24915;50.858;4.376;2023-04-06T12:04:28;35.35;;;19.52;;
39188;SDS011;24915;50.858;4.376;2023-04-06T12:06:55;78.90;;;37.67;;
39188;SDS011;24915;50.858;4.376;2023-04-06T12:09:22;45.78;;;25.45;;
39188;SDS011;24915;50.858;4.376;2023-04-06T12:11:47;49.50;;;26.85;;
39188;SDS011;24915;50.858;4.376;2023-04-06T12:14:13;41.08;;;23.92;;
39188;SDS011;24915;50.858;4.376;2023-04-06T12:16:39;91.93;;;45.45;;
39188;SDS011;24915;50.858;4.376;2023-04-06T12:19:05;51.78;;;28.25;;
39188;SDS011;24915;50.858;4.376;2023-04-06T12:21:33;23.23;;;17.05;;
39188;SDS011;24915;50.858;4.376;2023-04-06T12:24:00;33.88;;;23.95;;
39188;SDS011;24915;50.858;4.376;2023-04-06T12:26:26;30.80;;;19.58;;
39188;SDS011;24915;50.858;4.376;2023-04-06T12:28:52;27.48;;;18.00;;
39188;SDS011;24915;50.858;4.376;2023-04-06T12:31:18;28.98;;;17.77;;
39188;SDS011;24915;50.858;4.376;2023-04-06T12:33:48;26.73;;;15.82;;
39188;SDS011;24915;50.858;4.376;2023-04-06T12:36:15;22.30;;;15.15;;
39188;SDS011;24915;50.858;4.376;2023-04-06T12:38:44;25.80;;;16.80;;
39188;SDS011;24915;50.858;4.376;2023-04-06T12:41:10;25.23;;;17.27;;
39188;SDS011;24915;50.858;4.376;2023-04-06T12:43:36;25.30;;;15.48;;
39188;SDS011;24915;50.858;4.376;2023-04-06T12:46:02;24.67;;;15.85;;
39188;SDS011;24915;50.858;4.376;2023-04-06T12:48:28;23.25;;;15.95;;
39188;SDS011;24915;50.858;4.376;2023-04-06T12:50:57;26.50;;;17.67;;
39188;SDS011;24915;50.858;4.376;2023-04-06T12:53:23;24.48;;;15.90;;
39188;SDS011;24915;50.858;4.376;2023-04-06T12:55:49;22.08;;;15.93;;
39188;SDS011;24915;50.858;4.376;2023-04-06T12:58:15;22.40;;;15.15;;
39188;SDS011;24915;50.858;4.376;2023-04-06T13:00:42;22.42;;;15.45;;
39188;SDS011;24915;50.858;4.376;2023-04-06T13:03:07;25.92;;;16.23;;
39188;SDS011;24915;50.858;4.376;2023-04-06T13:05:33;25.27;;;16.35;;
39188;SDS011;24915;50.858;4.376;2023-04-06T13:07:59;23.35;;;16.30;;
39188;SDS011;24915;50.858;4.376;2023-04-06T13:10:25;24.17;;;16.08;;
39188;SDS011;24915;50.858;4.376;2023-04-06T13:12:51;25.48;;;15.70;;
39188;SDS011;24915;50.858;4.376;2023-04-06T13:15:17;24.25;;;14.68;;
39188;SDS011;24915;50.858;4.376;2023-04-06T13:17:43;25.88;;;16.10;;
39188;SDS011;24915;50.858;4.376;2023-04-06T13:20:09;25.48;;;16.00;;
39188;SDS011;24915;50.858;4.376;2023-04-06T13:22:34;21.20;;;15.13;;
39188;SDS011;24915;50.858;4.376;2023-04-06T13:25:00;23.10;;;15.60;;
39188;SDS011;24915;50.858;4.376;2023-04-06T13:27:26;24.35;;;16.45;;
39188;SDS011;24915;50.858;4.376;2023-04-06T13:29:52;27.08;;;15.43;;
39188;SDS011;24915;50.858;4.376;2023-04-06T13:32:19;25.17;;;16.23;;
39188;SDS011;24915;50.858;4.376;2023-04-06T13:34:45;24.88;;;15.98;;
39188;SDS011;24915;50.858;4.376;2023-04-06T13:37:13;25.35;;;16.27;;
39188;SDS011;24915;50.858;4.376;2023-04-06T13:39:38;23.58;;;16.35;;
39188;SDS011;24915;50.858;4.376;2023-04-06T13:42:04;25.63;;;16.92;;
39188;SDS011;24915;50.858;4.376;2023-04-06T13:44:30;25.65;;;17.27;;
39188;SDS011;24915;50.858;4.376;2023-04-06T13:46:56;22.10;;;15.43;;
39188;SDS011;24915;50.858;4.376;2023-04-06T13:49:22;23.30;;;15.93;;
39188;SDS011;24915;50.858;4.376;2023-04-06T13:51:47;25.80;;;15.68;;
39188;SDS011;24915;50.858;4.376;2023-04-06T13:54:13;26.23;;;16.08;;
39188;SDS011;24915;50.858;4.376;2023-04-06T13:56:39;25.25;;;16.42;;
39188;SDS011;24915;50.858;4.376;2023-04-06T13:59:04;24.08;;;15.43;;
39188;SDS011;24915;50.858;4.376;2023-04-06T14:01:30;25.17;;;15.95;;
39188;SDS011;24915;50.858;4.376;2023-04-06T14:03:56;25.15;;;15.93;;
39188;SDS011;24915;50.858;4.376;2023-04-06T14:06:21;26.02;;;16.80;;
39188;SDS011;24915;50.858;4.376;2023-04-06T14:08:47;23.90;;;17.38;;
39188;SDS011;24915;50.858;4.376;2023-04-06T14:11:13;23.40;;;16.92;;
39188;SDS011;24915;50.858;4.376;2023-04-06T14:13:39;26.67;;;18.13;;
39188;SDS011;24915;50.858;4.376;2023-04-06T14:16:05;25.80;;;18.80;;
39188;SDS011;24915;50.858;4.376;2023-04-06T14:18:32;31.73;;;20.67;;
39188;SDS011;24915;50.858;4.376;2023-04-06T14:20:59;33.22;;;20.90;;
39188;SDS011;24915;50.858;4.376;2023-04-06T14:23:26;27.73;;;19.77;;